createdAt,value
2017-08-21T00:01:12.042Z,20.70
2017-08-21T00:03:39.667Z,21.30
2017-08-21T00:06:07.239Z,22.57
2017-08-21T00:08:34.792Z,22.20
2017-08-21T00:11:02.542Z,22.80
2017-08-21T00:13:30.303Z,22.40
2017-08-21T00:15:57.902Z,22.20
2017-08-21T00:18:25.505Z,22.40
2017-08-21T00:20:53.313Z,22.60
2017-08-21T00:23:20.902Z,20.97
2017-08-21T00:25:48.675Z,21.87
2017-08-21T00:28:16.260Z,22.00
2017-08-21T00:30:43.867Z,22.67
2017-08-21T00:33:11.756Z,22.77
2017-08-21T00:35:39.340Z,23.97
2017-08-21T00:38:06.923Z,21.77
2017-08-21T00:40:34.514Z,22.37
2017-08-21T00:43:02.092Z,21.80
2017-08-21T00:45:29.732Z,21.10
2017-08-21T00:47:57.340Z,21.83
2017-08-21T00:50:24.872Z,21.43
2017-08-21T00:52:53.250Z,21.93
2017-08-21T00:55:21.061Z,22.70
2017-08-21T00:57:48.580Z,21.13
2017-08-21T01:00:17.828Z,21.93
2017-08-21T01:02:45.421Z,22.20
2017-08-21T01:05:12.997Z,21.33
2017-08-21T01:07:40.550Z,20.53
2017-08-21T01:10:08.113Z,20.83
2017-08-21T01:12:35.645Z,21.90
2017-08-21T01:15:03.229Z,20.30
2017-08-21T01:17:30.755Z,19.70
2017-08-21T01:19:58.310Z,18.73
2017-08-21T01:22:25.897Z,21.17
2017-08-21T01:24:53.508Z,20.13
2017-08-21T01:27:21.068Z,20.57
2017-08-21T01:29:48.669Z,19.40
2017-08-21T01:32:16.242Z,19.47
2017-08-21T01:34:43.785Z,19.20
2017-08-21T01:37:11.345Z,20.13
2017-08-21T01:39:38.937Z,18.67
2017-08-21T01:42:06.510Z,19.87
2017-08-21T01:44:34.364Z,18.87
2017-08-21T01:47:01.950Z,19.77
2017-08-21T01:49:29.487Z,18.17
2017-08-21T01:51:57.005Z,18.63
2017-08-21T01:54:25.294Z,19.00
2017-08-21T01:56:53.048Z,19.20
2017-08-21T01:59:20.618Z,18.80
2017-08-21T02:01:48.196Z,17.93
2017-08-21T02:04:15.779Z,17.80
2017-08-21T02:06:43.312Z,16.80
2017-08-21T02:09:10.881Z,18.43
2017-08-21T02:11:38.475Z,15.87
2017-08-21T02:14:06.084Z,16.50
2017-08-21T02:16:33.669Z,15.40
2017-08-21T02:19:01.222Z,15.30
2017-08-21T02:21:28.985Z,14.40
2017-08-21T02:23:56.579Z,14.70
2017-08-21T02:26:24.422Z,13.97
2017-08-21T02:28:51.955Z,14.10
2017-08-21T02:31:19.541Z,13.00
2017-08-21T02:33:47.096Z,13.03
2017-08-21T02:36:14.639Z,12.53
2017-08-21T02:38:46.267Z,12.23
2017-08-21T02:41:13.822Z,13.50
2017-08-21T02:43:41.351Z,13.93
2017-08-21T02:46:08.953Z,12.90
2017-08-21T02:48:36.534Z,12.93
2017-08-21T02:51:04.071Z,11.47
2017-08-21T02:53:31.638Z,11.77
2017-08-21T02:55:59.429Z,11.27
2017-08-21T02:58:27.199Z,10.53
2017-08-21T03:00:54.796Z,11.90
2017-08-21T03:03:22.346Z,10.93
2017-08-21T03:05:49.948Z,11.50
2017-08-21T03:08:17.584Z,10.60
2017-08-21T03:10:45.137Z,10.10
2017-08-21T03:13:12.813Z,9.43
2017-08-21T03:15:40.416Z,10.57
2017-08-21T03:18:08.012Z,10.40
2017-08-21T03:20:35.649Z,10.97
2017-08-21T03:23:03.261Z,10.90
2017-08-21T03:25:30.808Z,10.13
2017-08-21T03:27:58.384Z,9.53
2017-08-21T03:30:26.055Z,9.57
2017-08-21T03:32:53.652Z,9.87
2017-08-21T03:35:21.414Z,9.43
2017-08-21T03:37:49.005Z,9.50
2017-08-21T03:40:16.735Z,9.10
2017-08-21T03:42:44.299Z,8.57
2017-08-21T03:45:11.910Z,9.07
2017-08-21T03:47:39.425Z,10.53
2017-08-21T03:50:06.947Z,10.00
2017-08-21T03:52:34.537Z,8.63
2017-08-21T03:55:02.140Z,9.63
2017-08-21T03:57:29.925Z,9.50
2017-08-21T03:59:57.470Z,8.73
2017-08-21T04:02:25.050Z,9.13
2017-08-21T04:04:52.599Z,9.70
2017-08-21T04:07:20.129Z,11.00
2017-08-21T04:09:47.701Z,10.50
2017-08-21T04:12:15.323Z,9.30
2017-08-21T04:14:42.903Z,9.00
2017-08-21T04:17:10.470Z,8.30
2017-08-21T04:19:38.512Z,9.87
2017-08-21T04:22:06.037Z,8.63
2017-08-21T04:24:33.636Z,8.30
2017-08-21T04:27:01.156Z,7.50
2017-08-21T04:29:28.685Z,8.57
2017-08-21T04:31:56.248Z,7.90
2017-08-21T04:34:23.782Z,7.00
2017-08-21T04:36:51.333Z,7.97
2017-08-21T04:39:18.959Z,7.63
2017-08-21T04:41:46.727Z,7.70
2017-08-21T04:44:14.462Z,7.30
2017-08-21T04:46:42.042Z,7.70
2017-08-21T04:49:09.792Z,8.20
2017-08-21T04:51:37.411Z,10.60
2017-08-21T04:54:04.999Z,10.27
2017-08-21T04:56:32.601Z,9.17
2017-08-21T04:59:00.155Z,7.83
2017-08-21T05:01:27.739Z,7.87
2017-08-21T05:03:55.289Z,7.50
2017-08-21T05:06:23.185Z,7.50
2017-08-21T05:08:50.788Z,7.30
2017-08-21T05:11:18.359Z,7.53
2017-08-21T05:13:46.118Z,6.67
2017-08-21T05:16:13.680Z,8.53
2017-08-21T05:18:41.222Z,7.23
2017-08-21T05:21:08.783Z,6.23
2017-08-21T05:23:36.354Z,6.90
2017-08-21T05:26:04.104Z,6.00
2017-08-21T05:28:31.663Z,5.93
2017-08-21T05:30:59.243Z,5.30
2017-08-21T05:33:26.819Z,5.13
2017-08-21T05:35:54.361Z,5.73
2017-08-21T05:38:21.909Z,6.00
2017-08-21T05:40:49.569Z,4.57
2017-08-21T05:43:17.471Z,5.10
2017-08-21T05:45:45.123Z,4.83
2017-08-21T05:48:12.686Z,4.57
2017-08-21T05:50:40.883Z,4.30
2017-08-21T05:53:08.453Z,4.07
2017-08-21T05:55:36.017Z,4.20
2017-08-21T05:58:03.577Z,4.40
2017-08-21T06:00:31.158Z,3.87
2017-08-21T06:02:58.742Z,4.17
2017-08-21T06:05:26.493Z,4.00
2017-08-21T06:07:54.041Z,4.50
2017-08-21T06:10:21.587Z,3.47
2017-08-21T06:12:49.142Z,3.60
2017-08-21T06:15:23.888Z,4.03
2017-08-21T06:17:51.460Z,3.73
2017-08-21T06:20:19.021Z,4.13
2017-08-21T06:22:46.612Z,3.90
2017-08-21T06:25:14.133Z,4.07
2017-08-21T06:27:41.681Z,3.97
2017-08-21T06:30:09.324Z,3.70
2017-08-21T06:32:36.924Z,3.63
2017-08-21T06:35:04.448Z,3.77
2017-08-21T06:37:32.037Z,4.17
2017-08-21T06:39:59.601Z,4.47
2017-08-21T06:42:27.176Z,4.20
2017-08-21T06:44:54.713Z,4.00
2017-08-21T06:47:22.315Z,4.67
2017-08-21T06:49:49.889Z,4.40
2017-08-21T06:52:17.488Z,4.10
2017-08-21T06:54:45.052Z,5.00
2017-08-21T06:57:12.647Z,6.53
2017-08-21T06:59:40.237Z,5.43
2017-08-21T07:02:07.848Z,5.33
2017-08-21T07:04:35.403Z,6.43
2017-08-21T07:07:02.933Z,6.53
2017-08-21T07:09:30.482Z,7.30
2017-08-21T07:11:58.052Z,7.57
2017-08-21T07:14:25.565Z,7.90
2017-08-21T07:16:55.396Z,8.13
2017-08-21T07:19:22.944Z,7.03
2017-08-21T07:21:50.527Z,7.53
2017-08-21T07:24:18.138Z,7.50
2017-08-21T07:26:45.792Z,8.20
2017-08-21T07:29:13.536Z,8.50
2017-08-21T07:31:41.131Z,7.90
2017-08-21T07:34:08.669Z,8.17
2017-08-21T07:36:36.243Z,8.60
2017-08-21T07:39:03.905Z,9.53
2017-08-21T07:41:31.711Z,9.70
2017-08-21T07:43:59.269Z,9.73
2017-08-21T07:46:26.866Z,8.70
2017-08-21T07:48:55.215Z,8.50
2017-08-21T07:51:22.809Z,21.30
2017-08-21T07:53:50.442Z,16.00
2017-08-21T07:56:17.964Z,11.43
2017-08-21T07:58:45.542Z,10.93
2017-08-21T08:01:13.253Z,11.83
2017-08-21T08:03:40.813Z,12.97
2017-08-21T08:06:08.609Z,12.33
2017-08-21T08:08:36.186Z,11.80
2017-08-21T08:11:03.783Z,12.70
2017-08-21T08:13:31.365Z,12.20
2017-08-21T08:15:58.943Z,12.17
2017-08-21T08:18:26.535Z,13.70
2017-08-21T08:20:54.088Z,13.97
2017-08-21T08:23:21.683Z,14.80
2017-08-21T08:25:49.436Z,15.27
2017-08-21T08:28:17.000Z,15.90
2017-08-21T08:30:44.699Z,15.90
2017-08-21T08:33:12.286Z,15.43
2017-08-21T08:35:39.994Z,14.63
2017-08-21T08:38:07.586Z,16.60
2017-08-21T08:40:35.173Z,16.30
2017-08-21T08:43:02.754Z,15.80
2017-08-21T08:45:30.349Z,16.10
2017-08-21T08:47:57.966Z,15.40
2017-08-21T08:50:25.535Z,15.47
2017-08-21T08:52:53.144Z,17.60
2017-08-21T08:55:20.725Z,16.90
2017-08-21T08:57:48.581Z,13.53
2017-08-21T09:00:16.248Z,14.27
2017-08-21T09:02:44.047Z,14.70
2017-08-21T09:05:11.637Z,12.80
2017-08-21T09:07:39.239Z,12.70
2017-08-21T09:10:06.858Z,12.30
2017-08-21T09:12:34.398Z,12.90
2017-08-21T09:15:01.973Z,13.30
2017-08-21T09:17:29.538Z,12.40
2017-08-21T09:19:57.092Z,12.77
2017-08-21T09:22:24.689Z,11.40
2017-08-21T09:24:52.247Z,13.33
2017-08-21T09:27:19.805Z,10.77
2017-08-21T09:29:47.442Z,13.03
2017-08-21T09:32:15.040Z,12.27
2017-08-21T09:34:42.595Z,12.17
2017-08-21T09:37:10.137Z,11.47
2017-08-21T09:39:37.732Z,11.03
2017-08-21T09:42:05.294Z,11.80
2017-08-21T09:44:32.869Z,10.83
2017-08-21T09:47:00.486Z,10.30
2017-08-21T09:49:28.041Z,10.00
2017-08-21T09:51:55.796Z,11.10
2017-08-21T09:54:23.422Z,11.23
2017-08-21T09:56:50.969Z,10.60
2017-08-21T09:59:18.509Z,11.67
2017-08-21T10:01:46.125Z,11.43
2017-08-21T10:04:13.697Z,10.97
2017-08-21T10:06:41.477Z,11.47
2017-08-21T10:09:09.063Z,10.87
2017-08-21T10:11:36.604Z,10.40
2017-08-21T10:14:04.169Z,10.40
2017-08-21T10:16:31.788Z,10.83
2017-08-21T10:18:59.350Z,10.67
2017-08-21T10:21:26.897Z,9.60
2017-08-21T10:23:54.612Z,8.73
2017-08-21T10:26:22.152Z,9.80
2017-08-21T10:28:49.730Z,9.80
2017-08-21T10:31:17.599Z,8.50
2017-08-21T10:33:45.195Z,9.70
2017-08-21T10:36:12.776Z,9.37
2017-08-21T10:38:40.383Z,8.57
2017-08-21T10:41:07.939Z,9.40
2017-08-21T10:43:35.931Z,9.77
2017-08-21T10:46:03.570Z,8.10
2017-08-21T10:48:31.097Z,9.30
2017-08-21T10:50:58.650Z,9.13
2017-08-21T10:53:26.259Z,10.10
2017-08-21T10:55:53.814Z,9.93
2017-08-21T10:58:22.213Z,9.00
2017-08-21T11:00:49.764Z,9.57
2017-08-21T11:03:18.014Z,9.00
2017-08-21T11:05:45.603Z,8.40
2017-08-21T11:08:13.451Z,8.00
2017-08-21T11:10:41.041Z,8.03
2017-08-21T11:13:08.565Z,8.57
2017-08-21T11:15:36.167Z,7.10
2017-08-21T11:18:03.767Z,8.00
2017-08-21T11:20:31.351Z,8.33
2017-08-21T11:22:58.926Z,7.47
2017-08-21T11:25:26.679Z,7.37
2017-08-21T11:27:54.282Z,7.70
2017-08-21T11:30:22.564Z,7.37
2017-08-21T11:32:50.183Z,9.00
2017-08-21T11:35:17.786Z,8.47
2017-08-21T11:37:45.397Z,8.30
2017-08-21T11:40:13.109Z,9.20
2017-08-21T11:42:41.023Z,8.70
2017-08-21T11:45:08.643Z,8.40
2017-08-21T11:47:36.408Z,9.07
2017-08-21T11:50:03.954Z,9.07
2017-08-21T11:52:31.541Z,8.70
2017-08-21T11:54:59.289Z,8.50
2017-08-21T11:57:26.899Z,9.80
2017-08-21T11:59:54.790Z,9.27
2017-08-21T12:02:22.346Z,8.20
2017-08-21T12:04:49.936Z,9.60
2017-08-21T12:07:17.728Z,10.63
2017-08-21T12:09:45.339Z,10.37
2017-08-21T12:12:13.189Z,9.43
2017-08-21T12:14:40.776Z,9.97
2017-08-21T12:17:08.385Z,9.90
2017-08-21T12:19:35.933Z,10.30
2017-08-21T12:22:03.501Z,9.90
2017-08-21T12:24:31.081Z,9.90
2017-08-21T12:26:58.616Z,11.80
2017-08-21T12:29:26.145Z,10.60
2017-08-21T12:31:53.747Z,10.60
2017-08-21T12:34:21.273Z,10.07
2017-08-21T12:36:48.825Z,10.50
2017-08-21T12:39:16.363Z,9.60
2017-08-21T12:41:43.882Z,8.60
2017-08-21T12:44:11.424Z,8.20
2017-08-21T12:46:39.057Z,8.10
2017-08-21T12:49:06.673Z,8.50
2017-08-21T12:51:34.182Z,9.40
2017-08-21T12:54:01.831Z,9.40
2017-08-21T12:56:31.136Z,11.63
2017-08-21T12:58:58.667Z,9.90
2017-08-21T13:01:26.303Z,10.67
2017-08-21T13:03:53.925Z,10.00
2017-08-21T13:06:21.560Z,10.77
2017-08-21T13:08:49.155Z,11.30
2017-08-21T13:11:16.757Z,10.80
2017-08-21T13:13:44.421Z,11.00
2017-08-21T13:16:12.161Z,11.10
2017-08-21T13:18:39.808Z,10.67
2017-08-21T13:21:07.504Z,9.90
2017-08-21T13:23:35.120Z,10.43
2017-08-21T13:26:02.885Z,11.23
2017-08-21T13:28:30.482Z,11.60
2017-08-21T13:30:58.092Z,11.30
2017-08-21T13:33:25.698Z,11.30
2017-08-21T13:35:53.285Z,10.97
2017-08-21T13:38:20.898Z,10.60
2017-08-21T13:40:48.429Z,11.07
2017-08-21T13:43:15.964Z,11.53
2017-08-21T13:45:43.753Z,11.73
2017-08-21T13:48:11.334Z,11.47
2017-08-21T13:50:39.121Z,10.37
2017-08-21T13:53:06.730Z,12.00
2017-08-21T13:55:34.249Z,11.60
2017-08-21T13:58:01.822Z,11.47
2017-08-21T14:00:29.464Z,11.07
2017-08-21T14:02:57.114Z,11.30
2017-08-21T14:05:24.662Z,11.63
2017-08-21T14:07:52.302Z,9.73
2017-08-21T14:10:19.864Z,10.57
2017-08-21T14:12:47.422Z,9.23
2017-08-21T14:15:15.046Z,12.07
2017-08-21T14:17:42.595Z,11.77
2017-08-21T14:20:10.224Z,11.33
2017-08-21T14:22:37.823Z,10.80
2017-08-21T14:25:05.372Z,10.97
2017-08-21T14:27:32.912Z,11.50
2017-08-21T14:30:00.541Z,10.23
2017-08-21T14:32:28.128Z,11.33
2017-08-21T14:34:55.729Z,11.27
2017-08-21T14:37:23.315Z,10.10
2017-08-21T14:39:51.113Z,11.33
2017-08-21T14:42:18.649Z,11.23
2017-08-21T14:44:46.202Z,11.37
2017-08-21T14:47:14.554Z,11.50
2017-08-21T14:49:42.114Z,11.33
2017-08-21T14:52:09.883Z,10.27
2017-08-21T14:54:37.505Z,8.73
2017-08-21T14:57:05.078Z,9.50
2017-08-21T14:59:32.624Z,10.93
2017-08-21T15:02:00.226Z,10.97
2017-08-21T15:04:27.764Z,10.40
2017-08-21T15:06:55.378Z,9.50
2017-08-21T15:09:22.973Z,10.00
2017-08-21T15:11:50.564Z,9.33
2017-08-21T15:14:18.126Z,9.70
2017-08-21T15:16:45.732Z,10.30
2017-08-21T15:19:13.536Z,8.63
2017-08-21T15:21:41.300Z,8.60
2017-08-21T15:24:08.942Z,9.10
2017-08-21T15:26:36.523Z,9.00
2017-08-21T15:29:05.056Z,9.03
2017-08-21T15:31:32.690Z,8.63
2017-08-21T15:34:00.456Z,9.27
2017-08-21T15:36:28.046Z,9.17
2017-08-21T15:38:55.813Z,8.73
2017-08-21T15:41:23.373Z,8.40
2017-08-21T15:43:50.941Z,8.10
2017-08-21T15:46:18.600Z,8.23
2017-08-21T15:48:46.391Z,8.97
2017-08-21T15:51:14.316Z,9.67
2017-08-21T15:53:41.920Z,8.80
2017-08-21T15:56:09.496Z,8.20
2017-08-21T15:58:37.053Z,10.07
2017-08-21T16:01:04.735Z,8.97
2017-08-21T16:03:32.534Z,10.03
2017-08-21T16:06:00.083Z,10.00
2017-08-21T16:08:27.693Z,9.37
2017-08-21T16:10:55.305Z,9.60
2017-08-21T16:13:22.897Z,10.07
2017-08-21T16:15:50.492Z,10.77
2017-08-21T16:18:18.069Z,10.10
2017-08-21T16:20:45.848Z,10.40
2017-08-21T16:23:13.433Z,10.97
2017-08-21T16:25:41.045Z,10.97
2017-08-21T16:28:08.688Z,11.50
2017-08-21T16:30:36.270Z,10.87
2017-08-21T16:33:03.897Z,11.90
2017-08-21T16:35:31.502Z,12.40
2017-08-21T16:37:59.149Z,12.20
2017-08-21T16:40:26.924Z,13.10
2017-08-21T16:42:54.462Z,12.47
2017-08-21T16:45:22.031Z,13.70
2017-08-21T16:47:49.586Z,13.10
2017-08-21T16:50:17.140Z,13.70
2017-08-21T16:52:44.751Z,13.53
2017-08-21T16:55:12.333Z,12.37
2017-08-21T16:57:39.898Z,13.60
2017-08-21T17:00:08.839Z,12.97
2017-08-21T17:02:36.723Z,12.43
2017-08-21T17:05:04.495Z,13.17
2017-08-21T17:07:32.108Z,12.00
2017-08-21T17:10:01.206Z,12.53
2017-08-21T17:12:29.032Z,12.40
2017-08-21T17:14:56.713Z,12.37
2017-08-21T17:17:24.484Z,11.73
2017-08-21T17:19:52.092Z,11.67
2017-08-21T17:22:20.069Z,11.93
2017-08-21T17:24:47.834Z,11.97
2017-08-21T17:27:15.470Z,12.47
2017-08-21T17:29:43.568Z,11.20
2017-08-21T17:32:11.184Z,11.60
2017-08-21T17:34:38.789Z,11.70
2017-08-21T17:37:06.569Z,10.60
2017-08-21T17:39:34.180Z,10.67
2017-08-21T17:42:02.725Z,10.53
2017-08-21T17:44:31.086Z,10.00
2017-08-21T17:46:58.723Z,10.20
2017-08-21T17:49:26.886Z,8.93
2017-08-21T17:51:54.427Z,8.40
2017-08-21T17:54:22.241Z,8.23
2017-08-21T17:56:50.840Z,8.73
2017-08-21T17:59:18.434Z,9.10
2017-08-21T18:01:46.028Z,9.50
2017-08-21T18:04:13.602Z,8.57
2017-08-21T18:06:41.235Z,9.07
2017-08-21T18:09:09.648Z,9.30
2017-08-21T18:11:37.162Z,8.60
2017-08-21T18:14:05.900Z,8.77
2017-08-21T18:16:33.539Z,8.83
2017-08-21T18:19:01.880Z,8.00
2017-08-21T18:21:29.456Z,9.63
2017-08-21T18:23:57.917Z,8.90
2017-08-21T18:26:25.445Z,9.80
2017-08-21T18:28:52.984Z,8.23
2017-08-21T18:31:21.469Z,8.47
2017-08-21T18:33:49.069Z,8.40
2017-08-21T18:36:16.901Z,9.37
2017-08-21T18:38:44.832Z,8.33
2017-08-21T18:41:12.473Z,8.00
2017-08-21T18:43:40.067Z,7.47
2017-08-21T18:46:07.683Z,7.80
2017-08-21T18:48:35.466Z,8.20
2017-08-21T18:51:03.347Z,7.43
2017-08-21T18:53:31.148Z,7.83
2017-08-21T18:55:59.727Z,7.67
2017-08-21T18:58:27.534Z,6.93
2017-08-21T19:00:56.275Z,6.97
2017-08-21T19:03:23.822Z,6.37
2017-08-21T19:05:52.853Z,6.80
2017-08-21T19:08:20.946Z,6.67
2017-08-21T19:10:48.602Z,6.70
2017-08-21T19:13:17.142Z,7.03
2017-08-21T19:15:44.723Z,6.67
2017-08-21T19:18:12.619Z,6.40
2017-08-21T19:20:40.222Z,7.00
2017-08-21T19:23:07.825Z,6.50
2017-08-21T19:25:36.390Z,6.63
2017-08-21T19:28:06.440Z,6.10
2017-08-21T19:30:35.337Z,6.23
2017-08-21T19:33:03.056Z,5.70
2017-08-21T19:35:30.593Z,6.53
2017-08-21T19:37:58.209Z,5.83
2017-08-21T19:40:25.806Z,5.90
2017-08-21T19:42:53.398Z,5.10
2017-08-21T19:45:21.006Z,6.00
2017-08-21T19:47:49.454Z,4.93
2017-08-21T19:50:17.942Z,5.73
2017-08-21T19:52:45.532Z,5.53
2017-08-21T19:55:13.116Z,6.00
2017-08-21T19:57:40.709Z,5.57
2017-08-21T20:00:10.319Z,4.93
2017-08-21T20:02:37.858Z,5.10
2017-08-21T20:05:05.624Z,5.30
2017-08-21T20:07:33.182Z,4.67
2017-08-21T20:10:00.764Z,4.50
2017-08-21T20:12:28.545Z,4.73
2017-08-21T20:14:56.201Z,4.80
2017-08-21T20:17:24.772Z,4.30
2017-08-21T20:19:52.361Z,4.07
2017-08-21T20:22:19.969Z,4.17
2017-08-21T20:24:47.521Z,4.10
2017-08-21T20:27:15.542Z,3.73
2017-08-21T20:29:43.117Z,4.37
2017-08-21T20:32:10.975Z,3.53
2017-08-21T20:34:38.524Z,3.93
2017-08-21T20:37:06.058Z,4.20
2017-08-21T20:39:33.682Z,3.67
2017-08-21T20:42:03.076Z,3.70
2017-08-21T20:44:30.672Z,4.10
2017-08-21T20:47:00.114Z,3.50
2017-08-21T20:49:27.662Z,3.97
2017-08-21T20:51:55.231Z,3.67
2017-08-21T20:54:22.842Z,3.43
2017-08-21T20:56:50.388Z,3.37
2017-08-21T20:59:17.986Z,3.77
2017-08-21T21:01:45.573Z,3.40
2017-08-21T21:04:13.170Z,3.23
2017-08-21T21:06:40.868Z,2.70
2017-08-21T21:09:08.448Z,2.83
2017-08-21T21:11:35.996Z,2.80
2017-08-21T21:14:03.537Z,2.80
2017-08-21T21:16:31.620Z,2.87
2017-08-21T21:18:59.444Z,2.40
2017-08-21T21:21:27.020Z,2.60
2017-08-21T21:23:54.606Z,2.60
2017-08-21T21:26:22.587Z,2.73
2017-08-21T21:28:50.247Z,2.87
2017-08-21T21:31:17.882Z,2.80
2017-08-21T21:33:45.508Z,2.63
2017-08-21T21:36:13.269Z,2.70
2017-08-21T21:38:40.846Z,2.70
2017-08-21T21:41:08.390Z,2.53
2017-08-21T21:43:36.792Z,2.63
2017-08-21T21:46:04.384Z,2.90
2017-08-21T21:48:31.902Z,2.33
2017-08-21T21:50:59.677Z,2.80
2017-08-21T21:53:27.243Z,2.90
2017-08-21T21:55:55.244Z,2.90
2017-08-21T21:58:22.791Z,2.33
2017-08-21T22:00:50.407Z,2.70
2017-08-21T22:03:17.958Z,2.77
2017-08-21T22:05:45.756Z,2.80
2017-08-21T22:08:13.312Z,2.70
2017-08-21T22:10:41.084Z,2.83
2017-08-21T22:13:08.846Z,3.07
2017-08-21T22:15:36.634Z,2.90
2017-08-21T22:18:04.193Z,2.60
2017-08-21T22:20:31.785Z,2.40
2017-08-21T22:22:59.349Z,2.50
2017-08-21T22:25:26.887Z,2.80
2017-08-21T22:28:32.353Z,2.90
2017-08-21T22:30:59.984Z,2.33
2017-08-21T22:33:28.321Z,2.23
2017-08-21T22:35:56.085Z,2.80
2017-08-21T22:38:23.675Z,2.47
2017-08-21T22:40:51.380Z,3.03
2017-08-21T22:43:18.952Z,3.20
2017-08-21T22:45:46.528Z,2.97
2017-08-21T22:48:14.084Z,2.93
2017-08-21T22:50:42.434Z,2.97
2017-08-21T22:53:10.062Z,3.03
2017-08-21T22:55:37.603Z,2.50
2017-08-21T22:58:05.169Z,2.40
2017-08-21T23:00:33.029Z,2.60
2017-08-21T23:03:00.587Z,2.30
2017-08-21T23:05:28.186Z,2.57
2017-08-21T23:07:56.450Z,3.10
2017-08-21T23:10:24.018Z,2.30
2017-08-21T23:12:51.792Z,2.80
2017-08-21T23:15:19.417Z,2.60
2017-08-21T23:17:46.996Z,2.40
2017-08-21T23:20:14.781Z,2.60
2017-08-21T23:22:42.374Z,2.57
2017-08-21T23:25:09.916Z,2.77
2017-08-21T23:27:37.449Z,2.73
2017-08-21T23:30:06.501Z,2.07
2017-08-21T23:32:34.043Z,2.20
2017-08-21T23:35:01.591Z,2.57
2017-08-21T23:37:29.172Z,2.57
2017-08-21T23:39:56.933Z,2.80
2017-08-21T23:42:24.457Z,2.47
2017-08-21T23:44:52.047Z,2.40
2017-08-21T23:47:19.799Z,2.60
2017-08-21T23:49:47.345Z,2.60
2017-08-21T23:52:14.943Z,3.03
2017-08-21T23:54:42.685Z,2.67
2017-08-21T23:57:10.441Z,3.33
2017-08-21T23:59:38.020Z,2.50
